sensor_id;sensor_type;location;lat;lon;timestamp;temperature;humidity
40289;DHT22;28991;52.028;5.526;2024-03-22T00:01:56;19.50;50.40
40289;DHT22;28991;52.028;5.526;2024-03-22T00:04:22;19.50;50.30
40289;DHT22;28991;52.028;5.526;2024-03-22T00:06:48;19.40;50.30
40289;DHT22;28991;52.028;5.526;2024-03-22T00:09:15;19.50;50.40
40289;DHT22;28991;52.028;5.526;2024-03-22T00:11:41;19.60;50.40
40289;DHT22;28991;52.028;5.526;2024-03-22T00:14:08;19.60;50.50
40289;DHT22;28991;52.028;5.526;2024-03-22T00:16:33;19.50;50.40
40289;DHT22;28991;52.028;5.526;2024-03-22T00:18:59;19.60;50.50
40289;DHT22;28991;52.028;5.526;2024-03-22T00:21:25;19.60;50.50
40289;DHT22;28991;52.028;5.526;2024-03-22T00:23:50;19.50;50.40
40289;DHT22;28991;52.028;5.526;2024-03-22T00:26:16;19.50;50.40
40289;DHT22;28991;52.028;5.526;2024-03-22T00:28:42;19.60;50.50
40289;DHT22;28991;52.028;5.526;2024-03-22T00:31:08;20.10;50.80
40289;DHT22;28991;52.028;5.526;2024-03-22T00:33:34;19.50;50.50
40289;DHT22;28991;52.028;5.526;2024-03-22T00:35:59;19.60;50.60
40289;DHT22;28991;52.028;5.526;2024-03-22T00:38:25;19.50;50.50
40289;DHT22;28991;52.028;5.526;2024-03-22T00:40:50;19.50;50.50
40289;DHT22;28991;52.028;5.526;2024-03-22T00:43:16;19.50;50.50
40289;DHT22;28991;52.028;5.526;2024-03-22T00:45:42;19.60;50.60
40289;DHT22;28991;52.028;5.526;2024-03-22T00:48:07;19.50;50.50
40289;DHT22;28991;52.028;5.526;2024-03-22T00:50:33;19.60;50.60
40289;DHT22;28991;52.028;5.526;2024-03-22T00:52:59;19.60;50.60
40289;DHT22;28991;52.028;5.526;2024-03-22T00:55:24;19.60;50.60
40289;DHT22;28991;52.028;5.526;2024-03-22T00:57:51;19.60;50.70
40289;DHT22;28991;52.028;5.526;2024-03-22T01:00:17;19.70;50.70
40289;DHT22;28991;52.028;5.526;2024-03-22T01:02:43;19.50;50.60
40289;DHT22;28991;52.028;5.526;2024-03-22T01:05:09;19.50;50.60
40289;DHT22;28991;52.028;5.526;2024-03-22T01:07:36;19.70;50.70
40289;DHT22;28991;52.028;5.526;2024-03-22T01:10:02;19.50;50.60
40289;DHT22;28991;52.028;5.526;2024-03-22T01:12:28;19.50;50.60
40289;DHT22;28991;52.028;5.526;2024-03-22T01:14:54;20.10;50.90
40289;DHT22;28991;52.028;5.526;2024-03-22T01:17:19;19.40;50.60
40289;DHT22;28991;52.028;5.526;2024-03-22T01:19:45;19.60;50.70
40289;DHT22;28991;52.028;5.526;2024-03-22T01:22:10;19.50;50.60
40289;DHT22;28991;52.028;5.526;2024-03-22T01:24:36;19.50;50.70
40289;DHT22;28991;52.028;5.526;2024-03-22T01:27:02;19.50;50.70
40289;DHT22;28991;52.028;5.526;2024-03-22T01:29:27;19.60;50.80
40289;DHT22;28991;52.028;5.526;2024-03-22T01:31:56;19.70;50.80
40289;DHT22;28991;52.028;5.526;2024-03-22T01:34:21;19.50;50.70
40289;DHT22;28991;52.028;5.526;2024-03-22T01:36:47;19.50;50.70
40289;DHT22;28991;52.028;5.526;2024-03-22T01:39:12;19.50;50.70
40289;DHT22;28991;52.028;5.526;2024-03-22T01:41:39;19.50;50.70
40289;DHT22;28991;52.028;5.526;2024-03-22T01:44:05;19.70;50.80
40289;DHT22;28991;52.028;5.526;2024-03-22T01:46:30;19.80;50.90
40289;DHT22;28991;52.028;5.526;2024-03-22T01:48:56;19.50;50.70
40289;DHT22;28991;52.028;5.526;2024-03-22T01:51:22;19.40;50.70
40289;DHT22;28991;52.028;5.526;2024-03-22T01:53:48;19.50;50.70
40289;DHT22;28991;52.028;5.526;2024-03-22T01:56:13;19.90;51.00
40289;DHT22;28991;52.028;5.526;2024-03-22T01:58:40;19.50;50.80
40289;DHT22;28991;52.028;5.526;2024-03-22T02:01:06;19.40;50.70
40289;DHT22;28991;52.028;5.526;2024-03-22T02:03:31;19.50;50.80
40289;DHT22;28991;52.028;5.526;2024-03-22T02:05:57;19.60;50.90
40289;DHT22;28991;52.028;5.526;2024-03-22T02:08:22;19.50;50.80
40289;DHT22;28991;52.028;5.526;2024-03-22T02:10:48;19.50;50.80
40289;DHT22;28991;52.028;5.526;2024-03-22T02:13:14;19.50;50.80
40289;DHT22;28991;52.028;5.526;2024-03-22T02:15:39;19.50;50.80
40289;DHT22;28991;52.028;5.526;2024-03-22T02:18:05;19.50;50.80
40289;DHT22;28991;52.028;5.526;2024-03-22T02:20:30;19.60;50.90
40289;DHT22;28991;52.028;5.526;2024-03-22T02:22:56;19.50;50.90
40289;DHT22;28991;52.028;5.526;2024-03-22T02:25:21;20.10;51.20
40289;DHT22;28991;52.028;5.526;2024-03-22T02:27:47;19.50;50.90
40289;DHT22;28991;52.028;5.526;2024-03-22T02:30:16;19.50;50.90
40289;DHT22;28991;52.028;5.526;2024-03-22T02:32:41;19.50;50.90
40289;DHT22;28991;52.028;5.526;2024-03-22T02:35:07;19.50;50.90
40289;DHT22;28991;52.028;5.526;2024-03-22T02:37:33;19.50;50.90
40289;DHT22;28991;52.028;5.526;2024-03-22T02:39:59;19.50;50.90
40289;DHT22;28991;52.028;5.526;2024-03-22T02:42:24;19.50;50.90
40289;DHT22;28991;52.028;5.526;2024-03-22T02:44:50;19.60;51.00
40289;DHT22;28991;52.028;5.526;2024-03-22T02:47:15;19.50;50.90
40289;DHT22;28991;52.028;5.526;2024-03-22T02:49:41;19.80;51.10
40289;DHT22;28991;52.028;5.526;2024-03-22T02:52:07;19.50;50.90
40289;DHT22;28991;52.028;5.526;2024-03-22T02:54:32;19.50;50.90
40289;DHT22;28991;52.028;5.526;2024-03-22T02:56:58;19.50;50.90
40289;DHT22;28991;52.028;5.526;2024-03-22T02:59:26;19.50;50.90
40289;DHT22;28991;52.028;5.526;2024-03-22T03:01:52;19.50;50.90
40289;DHT22;28991;52.028;5.526;2024-03-22T03:04:18;19.30;50.90
40289;DHT22;28991;52.028;5.526;2024-03-22T03:06:43;19.60;51.10
40289;DHT22;28991;52.028;5.526;2024-03-22T03:09:11;19.50;51.00
40289;DHT22;28991;52.028;5.526;2024-03-22T03:11:39;19.40;51.00
40289;DHT22;28991;52.028;5.526;2024-03-22T03:14:04;19.40;51.50
40289;DHT22;28991;52.028;5.526;2024-03-22T03:16:30;19.10;50.80
40289;DHT22;28991;52.028;5.526;2024-03-22T03:18:55;19.40;51.00
40289;DHT22;28991;52.028;5.526;2024-03-22T03:21:21;19.50;51.00
40289;DHT22;28991;52.028;5.526;2024-03-22T03:23:46;19.50;51.00
40289;DHT22;28991;52.028;5.526;2024-03-22T03:26:12;19.50;51.10
40289;DHT22;28991;52.028;5.526;2024-03-22T03:28:38;19.50;51.00
40289;DHT22;28991;52.028;5.526;2024-03-22T03:31:04;19.40;51.00
40289;DHT22;28991;52.028;5.526;2024-03-22T03:33:30;19.40;51.00
40289;DHT22;28991;52.028;5.526;2024-03-22T03:35:55;19.50;51.10
40289;DHT22;28991;52.028;5.526;2024-03-22T03:38:21;19.40;51.00
40289;DHT22;28991;52.028;5.526;2024-03-22T03:40:47;19.50;51.10
40289;DHT22;28991;52.028;5.526;2024-03-22T03:43:13;19.50;51.10
40289;DHT22;28991;52.028;5.526;2024-03-22T03:45:39;19.40;51.10
40289;DHT22;28991;52.028;5.526;2024-03-22T03:48:04;19.40;51.00
40289;DHT22;28991;52.028;5.526;2024-03-22T03:50:30;19.50;51.10
40289;DHT22;28991;52.028;5.526;2024-03-22T03:52:56;19.50;51.10
40289;DHT22;28991;52.028;5.526;2024-03-22T03:55:23;19.50;51.10
40289;DHT22;28991;52.028;5.526;2024-03-22T03:57:50;19.50;51.10
40289;DHT22;28991;52.028;5.526;2024-03-22T04:00:16;20.00;51.40
40289;DHT22;28991;52.028;5.526;2024-03-22T04:02:41;19.50;51.20
40289;DHT22;28991;52.028;5.526;2024-03-22T04:05:07;19.60;51.30
40289;DHT22;28991;52.028;5.526;2024-03-22T04:07:33;19.50;51.20
40289;DHT22;28991;52.028;5.526;2024-03-22T04:09:58;19.40;51.20
40289;DHT22;28991;52.028;5.526;2024-03-22T04:12:26;19.40;51.20
40289;DHT22;28991;52.028;5.526;2024-03-22T04:14:52;19.40;51.20
40289;DHT22;28991;52.028;5.526;2024-03-22T04:17:18;19.40;51.20
40289;DHT22;28991;52.028;5.526;2024-03-22T04:19:43;19.40;51.20
40289;DHT22;28991;52.028;5.526;2024-03-22T04:22:09;19.50;51.80
40289;DHT22;28991;52.028;5.526;2024-03-22T04:24:34;19.40;51.20
40289;DHT22;28991;52.028;5.526;2024-03-22T04:27:00;19.40;51.20
40289;DHT22;28991;52.028;5.526;2024-03-22T04:29:26;19.40;51.20
40289;DHT22;28991;52.028;5.526;2024-03-22T04:31:51;19.40;51.30
40289;DHT22;28991;52.028;5.526;2024-03-22T04:34:17;19.80;51.50
40289;DHT22;28991;52.028;5.526;2024-03-22T04:36:42;19.40;51.30
40289;DHT22;28991;52.028;5.526;2024-03-22T04:39:08;19.30;51.20
40289;DHT22;28991;52.028;5.526;2024-03-22T04:41:35;20.30;51.80
40289;DHT22;28991;52.028;5.526;2024-03-22T04:44:00;19.40;51.30
40289;DHT22;28991;52.028;5.526;2024-03-22T04:46:26;19.90;51.60
40289;DHT22;28991;52.028;5.526;2024-03-22T04:48:52;19.40;51.30
40289;DHT22;28991;52.028;5.526;2024-03-22T04:51:17;19.60;51.40
40289;DHT22;28991;52.028;5.526;2024-03-22T04:53:43;19.50;51.40
40289;DHT22;28991;52.028;5.526;2024-03-22T04:56:09;19.30;51.30
40289;DHT22;28991;52.028;5.526;2024-03-22T04:58:35;19.40;51.30
40289;DHT22;28991;52.028;5.526;2024-03-22T05:01:00;19.40;51.40
40289;DHT22;28991;52.028;5.526;2024-03-22T05:03:26;19.30;51.30
40289;DHT22;28991;52.028;5.526;2024-03-22T05:05:51;19.50;51.40
40289;DHT22;28991;52.028;5.526;2024-03-22T05:08:17;19.60;51.50
40289;DHT22;28991;52.028;5.526;2024-03-22T05:10:43;19.40;51.40
40289;DHT22;28991;52.028;5.526;2024-03-22T05:13:08;19.90;51.70
40289;DHT22;28991;52.028;5.526;2024-03-22T05:15:34;19.60;51.60
40289;DHT22;28991;52.028;5.526;2024-03-22T05:18:00;19.30;51.40
40289;DHT22;28991;52.028;5.526;2024-03-22T05:20:26;19.40;51.50
40289;DHT22;28991;52.028;5.526;2024-03-22T05:22:51;19.40;51.50
40289;DHT22;28991;52.028;5.526;2024-03-22T05:25:17;20.10;51.80
40289;DHT22;28991;52.028;5.526;2024-03-22T05:27:44;19.40;51.40
40289;DHT22;28991;52.028;5.526;2024-03-22T05:30:10;19.40;51.50
40289;DHT22;28991;52.028;5.526;2024-03-22T05:32:36;19.40;51.50
40289;DHT22;28991;52.028;5.526;2024-03-22T05:35:02;19.40;51.50
40289;DHT22;28991;52.028;5.526;2024-03-22T05:37:27;19.50;51.60
40289;DHT22;28991;52.028;5.526;2024-03-22T05:39:53;19.30;51.50
40289;DHT22;28991;52.028;5.526;2024-03-22T05:42:18;19.40;51.50
40289;DHT22;28991;52.028;5.526;2024-03-22T05:44:44;19.60;51.60
40289;DHT22;28991;52.028;5.526;2024-03-22T05:47:10;19.30;51.50
40289;DHT22;28991;52.028;5.526;2024-03-22T05:49:36;19.40;51.60
40289;DHT22;28991;52.028;5.526;2024-03-22T05:52:01;19.40;51.60
40289;DHT22;28991;52.028;5.526;2024-03-22T05:54:27;19.40;51.60
40289;DHT22;28991;52.028;5.526;2024-03-22T05:56:52;19.40;51.60
40289;DHT22;28991;52.028;5.526;2024-03-22T05:59:18;19.40;51.50
40289;DHT22;28991;52.028;5.526;2024-03-22T06:01:44;20.10;51.90
40289;DHT22;28991;52.028;5.526;2024-03-22T06:04:09;19.40;51.60
40289;DHT22;28991;52.028;5.526;2024-03-22T06:06:35;19.30;51.50
40289;DHT22;28991;52.028;5.526;2024-03-22T06:09:01;19.30;51.60
40289;DHT22;28991;52.028;5.526;2024-03-22T06:11:36;19.30;51.50
40289;DHT22;28991;52.028;5.526;2024-03-22T06:14:02;19.80;51.60
40289;DHT22;28991;52.028;5.526;2024-03-22T06:16:28;19.50;51.30
40289;DHT22;28991;52.028;5.526;2024-03-22T06:18:53;19.50;51.10
40289;DHT22;28991;52.028;5.526;2024-03-22T06:21:19;20.00;51.10
40289;DHT22;28991;52.028;5.526;2024-03-22T06:23:50;19.80;50.90
40289;DHT22;28991;52.028;5.526;2024-03-22T06:26:16;19.90;50.70
40289;DHT22;28991;52.028;5.526;2024-03-22T06:28:41;19.80;50.40
40289;DHT22;28991;52.028;5.526;2024-03-22T06:31:07;20.20;50.40
40289;DHT22;28991;52.028;5.526;2024-03-22T06:33:33;19.90;50.30
40289;DHT22;28991;52.028;5.526;2024-03-22T06:35:59;19.80;50.30
40289;DHT22;28991;52.028;5.526;2024-03-22T06:38:25;20.20;50.50
40289;DHT22;28991;52.028;5.526;2024-03-22T06:40:51;19.90;50.30
40289;DHT22;28991;52.028;5.526;2024-03-22T06:43:16;20.00;50.20
40289;DHT22;28991;52.028;5.526;2024-03-22T06:45:42;20.20;50.30
40289;DHT22;28991;52.028;5.526;2024-03-22T06:48:07;19.90;50.20
40289;DHT22;28991;52.028;5.526;2024-03-22T06:50:33;19.90;50.20
40289;DHT22;28991;52.028;5.526;2024-03-22T06:52:58;20.20;50.40
40289;DHT22;28991;52.028;5.526;2024-03-22T06:55:24;20.20;50.30
40289;DHT22;28991;52.028;5.526;2024-03-22T06:57:50;20.00;49.80
40289;DHT22;28991;52.028;5.526;2024-03-22T07:00:16;20.10;50.30
40289;DHT22;28991;52.028;5.526;2024-03-22T07:02:43;19.80;50.10
40289;DHT22;28991;52.028;5.526;2024-03-22T07:05:09;19.90;50.20
40289;DHT22;28991;52.028;5.526;2024-03-22T07:07:35;19.80;50.10
40289;DHT22;28991;52.028;5.526;2024-03-22T07:10:02;19.90;50.10
40289;DHT22;28991;52.028;5.526;2024-03-22T07:12:28;19.80;50.10
40289;DHT22;28991;52.028;5.526;2024-03-22T07:14:54;19.80;50.10
40289;DHT22;28991;52.028;5.526;2024-03-22T07:17:20;19.90;50.10
40289;DHT22;28991;52.028;5.526;2024-03-22T07:19:50;20.00;50.60
40289;DHT22;28991;52.028;5.526;2024-03-22T07:22:16;20.60;50.40
40289;DHT22;28991;52.028;5.526;2024-03-22T07:24:42;19.90;50.10
40289;DHT22;28991;52.028;5.526;2024-03-22T07:27:08;19.90;50.00
40289;DHT22;28991;52.028;5.526;2024-03-22T07:29:33;20.20;50.20
40289;DHT22;28991;52.028;5.526;2024-03-22T07:31:59;19.90;50.00
40289;DHT22;28991;52.028;5.526;2024-03-22T07:34:24;19.90;50.00
40289;DHT22;28991;52.028;5.526;2024-03-22T07:36:50;20.20;50.10
40289;DHT22;28991;52.028;5.526;2024-03-22T07:39:15;19.90;50.00
40289;DHT22;28991;52.028;5.526;2024-03-22T07:41:41;20.00;50.00
40289;DHT22;28991;52.028;5.526;2024-03-22T07:44:07;19.90;49.90
40289;DHT22;28991;52.028;5.526;2024-03-22T07:46:33;19.90;49.90
40289;DHT22;28991;52.028;5.526;2024-03-22T07:48:58;20.00;50.60
40289;DHT22;28991;52.028;5.526;2024-03-22T07:51:25;19.90;50.50
40289;DHT22;28991;52.028;5.526;2024-03-22T07:53:50;20.00;49.90
40289;DHT22;28991;52.028;5.526;2024-03-22T07:56:17;19.80;49.80
40289;DHT22;28991;52.028;5.526;2024-03-22T07:58:43;20.00;49.90
40289;DHT22;28991;52.028;5.526;2024-03-22T08:01:08;19.90;49.80
40289;DHT22;28991;52.028;5.526;2024-03-22T08:03:34;20.10;50.00
40289;DHT22;28991;52.028;5.526;2024-03-22T08:06:00;19.90;49.90
40289;DHT22;28991;52.028;5.526;2024-03-22T08:08:25;19.90;49.90
40289;DHT22;28991;52.028;5.526;2024-03-22T08:10:51;20.00;50.00
40289;DHT22;28991;52.028;5.526;2024-03-22T08:13:16;20.10;50.10
40289;DHT22;28991;52.028;5.526;2024-03-22T08:15:42;19.90;50.00
40289;DHT22;28991;52.028;5.526;2024-03-22T08:18:11;19.90;50.00
40289;DHT22;28991;52.028;5.526;2024-03-22T08:20:36;20.00;50.10
40289;DHT22;28991;52.028;5.526;2024-03-22T08:23:04;20.00;50.10
40289;DHT22;28991;52.028;5.526;2024-03-22T08:25:30;19.90;50.10
40289;DHT22;28991;52.028;5.526;2024-03-22T08:27:55;19.90;50.10
40289;DHT22;28991;52.028;5.526;2024-03-22T08:30:23;19.90;50.10
40289;DHT22;28991;52.028;5.526;2024-03-22T08:32:48;19.90;50.20
40289;DHT22;28991;52.028;5.526;2024-03-22T08:35:14;20.20;50.30
40289;DHT22;28991;52.028;5.526;2024-03-22T08:37:40;19.90;50.20
40289;DHT22;28991;52.028;5.526;2024-03-22T08:40:06;19.80;50.20
40289;DHT22;28991;52.028;5.526;2024-03-22T08:42:33;20.00;50.30
40289;DHT22;28991;52.028;5.526;2024-03-22T08:44:58;20.60;50.70
40289;DHT22;28991;52.028;5.526;2024-03-22T08:47:24;19.90;50.30
40289;DHT22;28991;52.028;5.526;2024-03-22T08:49:49;20.00;50.40
40289;DHT22;28991;52.028;5.526;2024-03-22T08:52:15;20.00;50.40
40289;DHT22;28991;52.028;5.526;2024-03-22T08:54:41;19.90;50.40
40289;DHT22;28991;52.028;5.526;2024-03-22T08:57:06;20.40;50.70
40289;DHT22;28991;52.028;5.526;2024-03-22T08:59:32;20.00;50.50
40289;DHT22;28991;52.028;5.526;2024-03-22T09:01:58;20.00;50.60
40289;DHT22;28991;52.028;5.526;2024-03-22T09:04:25;19.90;50.60
40289;DHT22;28991;52.028;5.526;2024-03-22T09:06:50;19.80;50.60
40289;DHT22;28991;52.028;5.526;2024-03-22T09:09:16;20.00;50.70
40289;DHT22;28991;52.028;5.526;2024-03-22T09:11:42;20.00;50.80
40289;DHT22;28991;52.028;5.526;2024-03-22T09:14:08;20.00;50.80
40289;DHT22;28991;52.028;5.526;2024-03-22T09:16:33;20.00;51.50
40289;DHT22;28991;52.028;5.526;2024-03-22T09:18:59;19.90;50.90
40289;DHT22;28991;52.028;5.526;2024-03-22T09:21:24;20.00;51.30
40289;DHT22;28991;52.028;5.526;2024-03-22T09:23:50;19.90;51.20
40289;DHT22;28991;52.028;5.526;2024-03-22T09:26:15;20.00;51.10
40289;DHT22;28991;52.028;5.526;2024-03-22T09:28:41;20.00;51.90
40289;DHT22;28991;52.028;5.526;2024-03-22T09:31:08;19.90;51.20
40289;DHT22;28991;52.028;5.526;2024-03-22T09:33:34;20.00;51.30
40289;DHT22;28991;52.028;5.526;2024-03-22T09:36:00;20.10;51.40
40289;DHT22;28991;52.028;5.526;2024-03-22T09:38:25;20.10;51.40
40289;DHT22;28991;52.028;5.526;2024-03-22T09:40:51;20.00;51.40
40289;DHT22;28991;52.028;5.526;2024-03-22T09:43:21;20.00;51.30
40289;DHT22;28991;52.028;5.526;2024-03-22T09:45:47;20.00;51.30
40289;DHT22;28991;52.028;5.526;2024-03-22T09:48:17;20.00;51.40
40289;DHT22;28991;52.028;5.526;2024-03-22T09:50:43;20.00;51.40
40289;DHT22;28991;52.028;5.526;2024-03-22T09:53:10;20.10;51.60
40289;DHT22;28991;52.028;5.526;2024-03-22T09:55:36;20.10;51.70
40289;DHT22;28991;52.028;5.526;2024-03-22T09:58:02;20.10;51.60
40289;DHT22;28991;52.028;5.526;2024-03-22T10:00:29;20.10;51.70
40289;DHT22;28991;52.028;5.526;2024-03-22T10:02:56;20.10;51.80
40289;DHT22;28991;52.028;5.526;2024-03-22T10:05:23;20.10;51.70
40289;DHT22;28991;52.028;5.526;2024-03-22T10:07:49;20.10;51.80
40289;DHT22;28991;52.028;5.526;2024-03-22T10:10:15;20.10;52.40
40289;DHT22;28991;52.028;5.526;2024-03-22T10:12:41;20.10;51.90
40289;DHT22;28991;52.028;5.526;2024-03-22T10:15:07;20.10;51.90
40289;DHT22;28991;52.028;5.526;2024-03-22T10:17:39;20.10;52.20
40289;DHT22;28991;52.028;5.526;2024-03-22T10:20:05;20.20;52.20
40289;DHT22;28991;52.028;5.526;2024-03-22T10:22:38;20.10;52.10
40289;DHT22;28991;52.028;5.526;2024-03-22T10:25:06;20.10;52.20
40289;DHT22;28991;52.028;5.526;2024-03-22T10:27:32;20.10;52.20
40289;DHT22;28991;52.028;5.526;2024-03-22T10:29:58;20.10;52.20
40289;DHT22;28991;52.028;5.526;2024-03-22T10:32:24;20.20;52.40
40289;DHT22;28991;52.028;5.526;2024-03-22T10:34:50;20.10;52.30
40289;DHT22;28991;52.028;5.526;2024-03-22T10:37:16;20.10;52.50
40289;DHT22;28991;52.028;5.526;2024-03-22T10:39:43;20.10;52.40
40289;DHT22;28991;52.028;5.526;2024-03-22T10:42:11;20.10;52.50
40289;DHT22;28991;52.028;5.526;2024-03-22T10:44:38;20.10;52.60
40289;DHT22;28991;52.028;5.526;2024-03-22T10:47:04;20.60;52.90
40289;DHT22;28991;52.028;5.526;2024-03-22T10:49:34;20.10;52.50
40289;DHT22;28991;52.028;5.526;2024-03-22T10:52:02;20.40;52.90
40289;DHT22;28991;52.028;5.526;2024-03-22T10:54:35;20.10;52.90
40289;DHT22;28991;52.028;5.526;2024-03-22T10:57:01;20.10;52.90
40289;DHT22;28991;52.028;5.526;2024-03-22T10:59:33;20.10;52.80
40289;DHT22;28991;52.028;5.526;2024-03-22T11:02:03;20.20;52.80
40289;DHT22;28991;52.028;5.526;2024-03-22T11:04:30;20.20;52.90
40289;DHT22;28991;52.028;5.526;2024-03-22T11:06:56;20.20;52.90
40289;DHT22;28991;52.028;5.526;2024-03-22T11:09:23;20.10;53.00
40289;DHT22;28991;52.028;5.526;2024-03-22T11:11:52;20.10;53.20
40289;DHT22;28991;52.028;5.526;2024-03-22T11:14:17;20.10;53.10
40289;DHT22;28991;52.028;5.526;2024-03-22T11:16:49;20.10;52.90
40289;DHT22;28991;52.028;5.526;2024-03-22T11:19:14;20.40;53.30
40289;DHT22;28991;52.028;5.526;2024-03-22T11:21:40;20.10;53.10
40289;DHT22;28991;52.028;5.526;2024-03-22T11:24:06;20.10;53.10
40289;DHT22;28991;52.028;5.526;2024-03-22T11:26:35;20.30;53.20
40289;DHT22;28991;52.028;5.526;2024-03-22T11:29:00;20.20;53.60
40289;DHT22;28991;52.028;5.526;2024-03-22T11:31:27;20.20;53.20
40289;DHT22;28991;52.028;5.526;2024-03-22T11:33:56;20.20;53.30
40289;DHT22;28991;52.028;5.526;2024-03-22T11:36:22;20.20;53.30
40289;DHT22;28991;52.028;5.526;2024-03-22T11:38:48;20.20;53.30
40289;DHT22;28991;52.028;5.526;2024-03-22T11:41:22;20.20;53.40
40289;DHT22;28991;52.028;5.526;2024-03-22T11:43:49;20.30;53.50
40289;DHT22;28991;52.028;5.526;2024-03-22T11:46:16;20.20;53.60
40289;DHT22;28991;52.028;5.526;2024-03-22T11:48:42;20.20;53.40
40289;DHT22;28991;52.028;5.526;2024-03-22T11:51:08;20.20;53.50
40289;DHT22;28991;52.028;5.526;2024-03-22T11:53:35;20.20;53.50
40289;DHT22;28991;52.028;5.526;2024-03-22T11:56:01;20.20;53.70
40289;DHT22;28991;52.028;5.526;2024-03-22T11:58:29;20.20;53.70
40289;DHT22;28991;52.028;5.526;2024-03-22T12:00:56;20.20;53.60
40289;DHT22;28991;52.028;5.526;2024-03-22T12:03:22;20.20;53.60
40289;DHT22;28991;52.028;5.526;2024-03-22T12:05:48;20.20;53.50
40289;DHT22;28991;52.028;5.526;2024-03-22T12:08:17;20.10;53.60
40289;DHT22;28991;52.028;5.526;2024-03-22T12:10:43;20.20;53.50
40289;DHT22;28991;52.028;5.526;2024-03-22T12:13:09;20.50;53.70
40289;DHT22;28991;52.028;5.526;2024-03-22T12:15:34;20.20;53.50
40289;DHT22;28991;52.028;5.526;2024-03-22T12:18:00;20.20;53.60
40289;DHT22;28991;52.028;5.526;2024-03-22T12:20:26;20.40;53.90
40289;DHT22;28991;52.028;5.526;2024-03-22T12:22:52;20.30;53.70
40289;DHT22;28991;52.028;5.526;2024-03-22T12:25:18;20.60;53.90
40289;DHT22;28991;52.028;5.526;2024-03-22T12:27:43;20.20;54.30
40289;DHT22;28991;52.028;5.526;2024-03-22T12:30:10;20.30;53.70
40289;DHT22;28991;52.028;5.526;2024-03-22T12:32:36;20.20;53.60
40289;DHT22;28991;52.028;5.526;2024-03-22T12:35:02;20.30;53.70
40289;DHT22;28991;52.028;5.526;2024-03-22T12:37:27;20.30;53.80
40289;DHT22;28991;52.028;5.526;2024-03-22T12:39:53;20.40;54.00
40289;DHT22;28991;52.028;5.526;2024-03-22T12:42:19;20.10;53.80
40289;DHT22;28991;52.028;5.526;2024-03-22T12:44:45;20.30;54.00
40289;DHT22;28991;52.028;5.526;2024-03-22T12:47:11;20.30;53.80
40289;DHT22;28991;52.028;5.526;2024-03-22T12:49:36;20.30;53.80
40289;DHT22;28991;52.028;5.526;2024-03-22T12:52:02;20.30;53.80
40289;DHT22;28991;52.028;5.526;2024-03-22T12:54:28;20.30;53.80
40289;DHT22;28991;52.028;5.526;2024-03-22T12:56:53;20.30;54.00
40289;DHT22;28991;52.028;5.526;2024-03-22T12:59:19;20.20;53.90
40289;DHT22;28991;52.028;5.526;2024-03-22T13:01:44;20.50;53.90
40289;DHT22;28991;52.028;5.526;2024-03-22T13:04:10;20.30;53.80
40289;DHT22;28991;52.028;5.526;2024-03-22T13:06:36;20.80;54.10
40289;DHT22;28991;52.028;5.526;2024-03-22T13:09:01;20.30;53.80
40289;DHT22;28991;52.028;5.526;2024-03-22T13:11:31;20.80;54.00
40289;DHT22;28991;52.028;5.526;2024-03-22T13:13:57;20.30;53.70
40289;DHT22;28991;52.028;5.526;2024-03-22T13:16:23;20.40;53.80
40289;DHT22;28991;52.028;5.526;2024-03-22T13:18:49;20.30;53.70
40289;DHT22;28991;52.028;5.526;2024-03-22T13:21:15;20.30;53.70
40289;DHT22;28991;52.028;5.526;2024-03-22T13:23:40;20.30;53.70
40289;DHT22;28991;52.028;5.526;2024-03-22T13:26:06;20.30;53.70
40289;DHT22;28991;52.028;5.526;2024-03-22T13:28:32;20.20;53.70
40289;DHT22;28991;52.028;5.526;2024-03-22T13:31:02;20.70;53.80
40289;DHT22;28991;52.028;5.526;2024-03-22T13:33:29;20.30;53.60
40289;DHT22;28991;52.028;5.526;2024-03-22T13:35:55;20.30;53.60
40289;DHT22;28991;52.028;5.526;2024-03-22T13:38:20;20.30;53.50
40289;DHT22;28991;52.028;5.526;2024-03-22T13:40:55;20.30;53.50
40289;DHT22;28991;52.028;5.526;2024-03-22T13:43:22;20.30;53.50
40289;DHT22;28991;52.028;5.526;2024-03-22T13:45:51;20.30;53.50
40289;DHT22;28991;52.028;5.526;2024-03-22T13:48:20;20.30;53.40
40289;DHT22;28991;52.028;5.526;2024-03-22T13:50:50;20.50;53.50
40289;DHT22;28991;52.028;5.526;2024-03-22T13:53:15;20.30;53.40
40289;DHT22;28991;52.028;5.526;2024-03-22T13:55:42;20.30;53.30
40289;DHT22;28991;52.028;5.526;2024-03-22T13:58:08;20.70;53.50
40289;DHT22;28991;52.028;5.526;2024-03-22T14:00:34;20.50;53.30
40289;DHT22;28991;52.028;5.526;2024-03-22T14:02:59;20.20;53.10
40289;DHT22;28991;52.028;5.526;2024-03-22T14:05:25;20.40;53.20
40289;DHT22;28991;52.028;5.526;2024-03-22T14:07:52;20.30;53.10
40289;DHT22;28991;52.028;5.526;2024-03-22T14:10:17;20.30;53.10
40289;DHT22;28991;52.028;5.526;2024-03-22T14:12:45;20.30;53.00
40289;DHT22;28991;52.028;5.526;2024-03-22T14:15:11;20.30;53.00
40289;DHT22;28991;52.028;5.526;2024-03-22T14:17:36;20.40;53.00
40289;DHT22;28991;52.028;5.526;2024-03-22T14:20:02;20.60;53.10
40289;DHT22;28991;52.028;5.526;2024-03-22T14:22:34;20.30;52.90
40289;DHT22;28991;52.028;5.526;2024-03-22T14:24:59;20.40;52.90
40289;DHT22;28991;52.028;5.526;2024-03-22T14:27:25;20.60;53.00
40289;DHT22;28991;52.028;5.526;2024-03-22T14:29:50;20.30;52.80
40289;DHT22;28991;52.028;5.526;2024-03-22T14:32:17;20.30;52.80
40289;DHT22;28991;52.028;5.526;2024-03-22T14:34:43;20.30;52.80
40289;DHT22;28991;52.028;5.526;2024-03-22T14:37:08;20.20;52.70
40289;DHT22;28991;52.028;5.526;2024-03-22T14:39:34;20.30;52.80
40289;DHT22;28991;52.028;5.526;2024-03-22T14:41:59;20.60;52.90
40289;DHT22;28991;52.028;5.526;2024-03-22T14:44:25;20.30;52.70
40289;DHT22;28991;52.028;5.526;2024-03-22T14:46:50;20.30;52.70
40289;DHT22;28991;52.028;5.526;2024-03-22T14:49:16;21.10;53.10
40289;DHT22;28991;52.028;5.526;2024-03-22T14:51:41;20.50;52.80
40289;DHT22;28991;52.028;5.526;2024-03-22T14:54:07;20.70;52.90
40289;DHT22;28991;52.028;5.526;2024-03-22T14:56:32;20.40;52.70
40289;DHT22;28991;52.028;5.526;2024-03-22T14:58:58;20.30;52.60
40289;DHT22;28991;52.028;5.526;2024-03-22T15:01:25;20.20;52.60
40289;DHT22;28991;52.028;5.526;2024-03-22T15:03:52;20.30;52.60
40289;DHT22;28991;52.028;5.526;2024-03-22T15:06:17;20.30;52.60
40289;DHT22;28991;52.028;5.526;2024-03-22T15:08:43;20.30;52.60
40289;DHT22;28991;52.028;5.526;2024-03-22T15:11:08;20.30;52.60
40289;DHT22;28991;52.028;5.526;2024-03-22T15:13:34;20.60;52.70
40289;DHT22;28991;52.028;5.526;2024-03-22T15:15:59;20.20;52.60
40289;DHT22;28991;52.028;5.526;2024-03-22T15:18:25;20.30;52.60
40289;DHT22;28991;52.028;5.526;2024-03-22T15:20:54;20.30;52.60
40289;DHT22;28991;52.028;5.526;2024-03-22T15:23:20;20.30;52.60